sensor_id;sensor_type;location;lat;lon;timestamp;P1;durP1;ratioP1;P2;durP2;ratioP2
19301;SDS011;9785;59.362;12.152;2024-01-30T00:01:47;63.37;;;6.37;;
19301;SDS011;9785;59.362;12.152;2024-01-30T00:04:15;51.93;;;5.77;;
19301;SDS011;9785;59.362;12.152;2024-01-30T00:06:45;42.53;;;5.33;;
19301;SDS011;9785;59.362;12.152;2024-01-30T00:09:14;52.10;;;5.93;;
19301;SDS011;9785;59.362;12.152;2024-01-30T00:11:42;36.00;;;5.20;;
19301;SDS011;9785;59.362;12.152;2024-01-30T00:14:12;58.50;;;6.07;;
19301;SDS011;9785;59.362;12.152;2024-01-30T00:16:40;24.20;;;3.60;;
19301;SDS011;9785;59.362;12.152;2024-01-30T00:19:09;41.13;;;5.07;;
19301;SDS011;9785;59.362;12.152;2024-01-30T00:21:37;35.57;;;5.50;;
19301;SDS011;9785;59.362;12.152;2024-01-30T00:24:07;25.13;;;4.50;;
19301;SDS011;9785;59.362;12.152;2024-01-30T00:26:36;19.10;;;3.33;;
19301;SDS011;9785;59.362;12.152;2024-01-30T00:29:04;30.90;;;4.63;;
19301;SDS011;9785;59.362;12.152;2024-01-30T00:31:33;27.83;;;3.83;;
19301;SDS011;9785;59.362;12.152;2024-01-30T00:34:05;13.83;;;4.00;;
19301;SDS011;9785;59.362;12.152;2024-01-30T00:36:34;14.93;;;4.17;;
19301;SDS011;9785;59.362;12.152;2024-01-30T00:39:03;19.20;;;3.40;;
19301;SDS011;9785;59.362;12.152;2024-01-30T00:41:34;9.93;;;3.47;;
19301;SDS011;9785;59.362;12.152;2024-01-30T00:44:02;12.47;;;3.50;;
19301;SDS011;9785;59.362;12.152;2024-01-30T00:46:31;11.83;;;2.80;;
19301;SDS011;9785;59.362;12.152;2024-01-30T00:48:59;8.77;;;3.30;;
19301;SDS011;9785;59.362;12.152;2024-01-30T00:51:29;11.47;;;3.53;;
19301;SDS011;9785;59.362;12.152;2024-01-30T00:53:58;21.77;;;3.93;;
19301;SDS011;9785;59.362;12.152;2024-01-30T00:56:26;20.50;;;3.53;;
19301;SDS011;9785;59.362;12.152;2024-01-30T00:58:57;10.67;;;2.80;;
19301;SDS011;9785;59.362;12.152;2024-01-30T01:01:25;15.87;;;3.30;;
19301;SDS011;9785;59.362;12.152;2024-01-30T01:03:54;10.67;;;3.37;;
19301;SDS011;9785;59.362;12.152;2024-01-30T01:06:24;11.10;;;3.10;;
19301;SDS011;9785;59.362;12.152;2024-01-30T01:08:53;6.87;;;3.07;;
19301;SDS011;9785;59.362;12.152;2024-01-30T01:11:22;8.90;;;2.93;;
19301;SDS011;9785;59.362;12.152;2024-01-30T01:13:50;11.47;;;3.50;;
19301;SDS011;9785;59.362;12.152;2024-01-30T01:16:20;16.10;;;3.37;;
19301;SDS011;9785;59.362;12.152;2024-01-30T01:18:49;19.77;;;3.47;;
19301;SDS011;9785;59.362;12.152;2024-01-30T01:21:17;14.80;;;3.10;;
19301;SDS011;9785;59.362;12.152;2024-01-30T01:23:46;24.27;;;3.30;;
19301;SDS011;9785;59.362;12.152;2024-01-30T01:26:14;23.60;;;3.43;;
19301;SDS011;9785;59.362;12.152;2024-01-30T01:28:43;14.30;;;2.57;;
19301;SDS011;9785;59.362;12.152;2024-01-30T01:31:11;20.00;;;3.60;;
19301;SDS011;9785;59.362;12.152;2024-01-30T01:33:42;35.13;;;3.77;;
19301;SDS011;9785;59.362;12.152;2024-01-30T01:36:10;37.60;;;3.83;;
19301;SDS011;9785;59.362;12.152;2024-01-30T01:38:39;22.13;;;3.10;;
19301;SDS011;9785;59.362;12.152;2024-01-30T01:41:07;28.03;;;3.47;;
19301;SDS011;9785;59.362;12.152;2024-01-30T01:43:36;35.03;;;3.30;;
19301;SDS011;9785;59.362;12.152;2024-01-30T01:46:05;26.93;;;3.57;;
19301;SDS011;9785;59.362;12.152;2024-01-30T01:48:33;49.80;;;3.33;;
19301;SDS011;9785;59.362;12.152;2024-01-30T01:51:04;33.20;;;3.47;;
19301;SDS011;9785;59.362;12.152;2024-01-30T01:53:32;16.37;;;2.93;;
19301;SDS011;9785;59.362;12.152;2024-01-30T01:56:01;21.90;;;3.00;;
19301;SDS011;9785;59.362;12.152;2024-01-30T01:58:30;5.47;;;2.87;;
19301;SDS011;9785;59.362;12.152;2024-01-30T02:00:58;9.27;;;2.63;;
19301;SDS011;9785;59.362;12.152;2024-01-30T02:03:27;4.93;;;2.70;;
19301;SDS011;9785;59.362;12.152;2024-01-30T02:05:56;5.97;;;2.87;;
19301;SDS011;9785;59.362;12.152;2024-01-30T02:08:26;9.83;;;3.30;;
19301;SDS011;9785;59.362;12.152;2024-01-30T02:10:55;3.57;;;2.93;;
19301;SDS011;9785;59.362;12.152;2024-01-30T02:13:23;7.23;;;2.90;;
19301;SDS011;9785;59.362;12.152;2024-01-30T02:15:52;5.20;;;2.77;;
19301;SDS011;9785;59.362;12.152;2024-01-30T02:18:20;11.63;;;3.10;;
19301;SDS011;9785;59.362;12.152;2024-01-30T02:20:49;8.13;;;3.20;;
19301;SDS011;9785;59.362;12.152;2024-01-30T02:23:20;5.07;;;3.00;;
19301;SDS011;9785;59.362;12.152;2024-01-30T02:25:48;6.80;;;2.80;;
19301;SDS011;9785;59.362;12.152;2024-01-30T02:28:19;4.90;;;2.70;;
19301;SDS011;9785;59.362;12.152;2024-01-30T02:30:48;5.23;;;2.97;;
19301;SDS011;9785;59.362;12.152;2024-01-30T02:33:16;3.77;;;2.60;;
19301;SDS011;9785;59.362;12.152;2024-01-30T02:35:48;3.57;;;2.40;;
19301;SDS011;9785;59.362;12.152;2024-01-30T02:38:16;5.63;;;2.60;;
19301;SDS011;9785;59.362;12.152;2024-01-30T02:40:46;4.17;;;2.67;;
19301;SDS011;9785;59.362;12.152;2024-01-30T02:43:15;3.80;;;2.47;;
19301;SDS011;9785;59.362;12.152;2024-01-30T02:45:44;4.60;;;2.57;;
19301;SDS011;9785;59.362;12.152;2024-01-30T02:48:13;3.50;;;2.63;;
19301;SDS011;9785;59.362;12.152;2024-01-30T02:50:42;4.03;;;2.73;;
19301;SDS011;9785;59.362;12.152;2024-01-30T02:53:10;3.70;;;2.50;;
19301;SDS011;9785;59.362;12.152;2024-01-30T02:55:39;2.50;;;2.30;;
19301;SDS011;9785;59.362;12.152;2024-01-30T02:58:09;2.20;;;2.00;;
19301;SDS011;9785;59.362;12.152;2024-01-30T03:00:37;4.13;;;2.67;;
19301;SDS011;9785;59.362;12.152;2024-01-30T03:03:06;4.27;;;2.27;;
19301;SDS011;9785;59.362;12.152;2024-01-30T03:05:34;6.70;;;2.40;;
19301;SDS011;9785;59.362;12.152;2024-01-30T03:08:04;5.40;;;2.53;;
19301;SDS011;9785;59.362;12.152;2024-01-30T03:10:32;2.40;;;2.20;;
19301;SDS011;9785;59.362;12.152;2024-01-30T03:13:01;5.20;;;2.47;;
19301;SDS011;9785;59.362;12.152;2024-01-30T03:15:31;2.83;;;2.60;;
19301;SDS011;9785;59.362;12.152;2024-01-30T03:18:00;6.63;;;2.07;;
19301;SDS011;9785;59.362;12.152;2024-01-30T03:20:31;2.43;;;1.83;;
19301;SDS011;9785;59.362;12.152;2024-01-30T03:22:59;4.17;;;2.37;;
19301;SDS011;9785;59.362;12.152;2024-01-30T03:25:28;2.57;;;2.30;;
19301;SDS011;9785;59.362;12.152;2024-01-30T03:27:57;2.20;;;2.00;;
19301;SDS011;9785;59.362;12.152;2024-01-30T03:30:25;2.63;;;2.27;;
19301;SDS011;9785;59.362;12.152;2024-01-30T03:32:55;3.63;;;2.50;;
19301;SDS011;9785;59.362;12.152;2024-01-30T03:35:24;4.37;;;2.17;;
19301;SDS011;9785;59.362;12.152;2024-01-30T03:37:52;2.60;;;2.40;;
19301;SDS011;9785;59.362;12.152;2024-01-30T03:40:21;3.60;;;2.30;;
19301;SDS011;9785;59.362;12.152;2024-01-30T03:42:49;3.27;;;2.30;;
19301;SDS011;9785;59.362;12.152;2024-01-30T03:45:18;4.60;;;2.30;;
19301;SDS011;9785;59.362;12.152;2024-01-30T03:47:47;3.50;;;2.40;;
19301;SDS011;9785;59.362;12.152;2024-01-30T03:50:17;2.93;;;2.37;;
19301;SDS011;9785;59.362;12.152;2024-01-30T03:52:45;3.47;;;2.40;;
19301;SDS011;9785;59.362;12.152;2024-01-30T03:55:14;3.27;;;2.70;;
19301;SDS011;9785;59.362;12.152;2024-01-30T03:57:43;5.20;;;2.57;;
19301;SDS011;9785;59.362;12.152;2024-01-30T04:00:11;3.23;;;2.40;;
19301;SDS011;9785;59.362;12.152;2024-01-30T04:02:40;3.07;;;2.27;;
19301;SDS011;9785;59.362;12.152;2024-01-30T04:05:09;2.53;;;1.93;;
19301;SDS011;9785;59.362;12.152;2024-01-30T04:07:39;3.27;;;1.97;;
19301;SDS011;9785;59.362;12.152;2024-01-30T04:10:08;4.07;;;2.27;;
19301;SDS011;9785;59.362;12.152;2024-01-30T04:12:36;3.07;;;2.30;;
19301;SDS011;9785;59.362;12.152;2024-01-30T04:15:05;2.70;;;1.90;;
19301;SDS011;9785;59.362;12.152;2024-01-30T04:17:34;2.63;;;2.03;;
19301;SDS011;9785;59.362;12.152;2024-01-30T04:20:03;4.00;;;2.10;;
19301;SDS011;9785;59.362;12.152;2024-01-30T04:22:32;4.07;;;2.60;;
19301;SDS011;9785;59.362;12.152;2024-01-30T04:25:02;3.60;;;2.30;;
19301;SDS011;9785;59.362;12.152;2024-01-30T04:27:31;5.27;;;2.37;;
19301;SDS011;9785;59.362;12.152;2024-01-30T04:29:59;3.23;;;2.60;;
19301;SDS011;9785;59.362;12.152;2024-01-30T04:32:28;3.53;;;2.73;;
19301;SDS011;9785;59.362;12.152;2024-01-30T04:34:56;3.40;;;2.40;;
19301;SDS011;9785;59.362;12.152;2024-01-30T04:37:25;3.93;;;2.50;;
19301;SDS011;9785;59.362;12.152;2024-01-30T04:39:54;4.30;;;2.50;;
19301;SDS011;9785;59.362;12.152;2024-01-30T04:42:24;2.77;;;2.33;;
19301;SDS011;9785;59.362;12.152;2024-01-30T04:44:53;3.83;;;2.50;;
19301;SDS011;9785;59.362;12.152;2024-01-30T04:47:21;2.70;;;2.40;;
19301;SDS011;9785;59.362;12.152;2024-01-30T04:49:51;4.77;;;2.40;;
19301;SDS011;9785;59.362;12.152;2024-01-30T04:52:20;2.73;;;2.53;;
19301;SDS011;9785;59.362;12.152;2024-01-30T04:54:48;4.73;;;2.50;;
19301;SDS011;9785;59.362;12.152;2024-01-30T04:57:17;2.67;;;2.20;;
19301;SDS011;9785;59.362;12.152;2024-01-30T04:59:47;5.10;;;2.43;;
19301;SDS011;9785;59.362;12.152;2024-01-30T05:02:15;2.73;;;2.47;;
19301;SDS011;9785;59.362;12.152;2024-01-30T05:04:44;3.73;;;2.20;;
19301;SDS011;9785;59.362;12.152;2024-01-30T05:07:12;2.30;;;2.10;;
19301;SDS011;9785;59.362;12.152;2024-01-30T05:09:41;3.90;;;2.10;;
19301;SDS011;9785;59.362;12.152;2024-01-30T05:12:10;2.97;;;2.30;;
19301;SDS011;9785;59.362;12.152;2024-01-30T05:14:38;2.73;;;2.23;;
19301;SDS011;9785;59.362;12.152;2024-01-30T05:17:08;3.00;;;2.00;;
19301;SDS011;9785;59.362;12.152;2024-01-30T05:19:39;2.30;;;2.10;;
19301;SDS011;9785;59.362;12.152;2024-01-30T05:22:07;2.60;;;2.30;;
19301;SDS011;9785;59.362;12.152;2024-01-30T05:24:42;5.10;;;2.20;;
19301;SDS011;9785;59.362;12.152;2024-01-30T05:27:10;2.23;;;2.03;;
19301;SDS011;9785;59.362;12.152;2024-01-30T05:29:40;2.90;;;2.10;;
19301;SDS011;9785;59.362;12.152;2024-01-30T05:32:10;8.03;;;2.17;;
19301;SDS011;9785;59.362;12.152;2024-01-30T05:34:38;5.00;;;1.90;;
19301;SDS011;9785;59.362;12.152;2024-01-30T05:37:07;3.80;;;2.10;;
19301;SDS011;9785;59.362;12.152;2024-01-30T05:39:40;3.87;;;2.00;;
19301;SDS011;9785;59.362;12.152;2024-01-30T05:42:09;3.17;;;2.17;;
19301;SDS011;9785;59.362;12.152;2024-01-30T05:44:38;4.80;;;2.50;;
19301;SDS011;9785;59.362;12.152;2024-01-30T05:47:06;2.83;;;2.40;;
19301;SDS011;9785;59.362;12.152;2024-01-30T05:49:36;2.47;;;2.23;;
19301;SDS011;9785;59.362;12.152;2024-01-30T05:52:05;2.20;;;2.00;;
19301;SDS011;9785;59.362;12.152;2024-01-30T05:54:34;4.23;;;1.97;;
19301;SDS011;9785;59.362;12.152;2024-01-30T05:57:03;3.70;;;2.00;;
19301;SDS011;9785;59.362;12.152;2024-01-30T05:59:31;3.30;;;2.10;;
19301;SDS011;9785;59.362;12.152;2024-01-30T06:02:02;1.90;;;1.80;;
19301;SDS011;9785;59.362;12.152;2024-01-30T06:04:31;2.83;;;2.20;;
19301;SDS011;9785;59.362;12.152;2024-01-30T06:07:01;2.93;;;2.10;;
19301;SDS011;9785;59.362;12.152;2024-01-30T06:09:32;2.47;;;2.13;;
19301;SDS011;9785;59.362;12.152;2024-01-30T06:12:01;3.90;;;2.27;;
19301;SDS011;9785;59.362;12.152;2024-01-30T06:14:31;3.10;;;2.00;;
19301;SDS011;9785;59.362;12.152;2024-01-30T06:17:00;3.63;;;2.03;;
19301;SDS011;9785;59.362;12.152;2024-01-30T06:19:29;2.33;;;2.13;;
19301;SDS011;9785;59.362;12.152;2024-01-30T06:21:57;2.77;;;1.90;;
19301;SDS011;9785;59.362;12.152;2024-01-30T06:24:27;3.63;;;1.93;;
19301;SDS011;9785;59.362;12.152;2024-01-30T06:26:56;2.80;;;2.20;;
19301;SDS011;9785;59.362;12.152;2024-01-30T06:29:24;4.47;;;2.00;;
19301;SDS011;9785;59.362;12.152;2024-01-30T06:31:53;5.37;;;2.37;;
19301;SDS011;9785;59.362;12.152;2024-01-30T06:34:22;3.37;;;1.97;;
19301;SDS011;9785;59.362;12.152;2024-01-30T06:36:50;2.30;;;2.10;;
19301;SDS011;9785;59.362;12.152;2024-01-30T06:39:19;4.57;;;2.27;;
19301;SDS011;9785;59.362;12.152;2024-01-30T06:41:49;4.33;;;2.33;;
19301;SDS011;9785;59.362;12.152;2024-01-30T06:44:17;2.60;;;1.97;;
19301;SDS011;9785;59.362;12.152;2024-01-30T06:46:46;2.70;;;2.20;;
19301;SDS011;9785;59.362;12.152;2024-01-30T06:49:14;3.20;;;2.20;;
19301;SDS011;9785;59.362;12.152;2024-01-30T06:51:43;3.10;;;1.97;;
19301;SDS011;9785;59.362;12.152;2024-01-30T06:54:12;4.90;;;2.33;;
19301;SDS011;9785;59.362;12.152;2024-01-30T06:56:40;2.50;;;2.27;;
19301;SDS011;9785;59.362;12.152;2024-01-30T06:59:10;2.97;;;1.87;;
19301;SDS011;9785;59.362;12.152;2024-01-30T07:01:40;4.23;;;2.20;;
19301;SDS011;9785;59.362;12.152;2024-01-30T07:04:08;3.77;;;2.10;;
19301;SDS011;9785;59.362;12.152;2024-01-30T07:06:37;4.60;;;2.47;;
19301;SDS011;9785;59.362;12.152;2024-01-30T07:09:06;2.50;;;1.93;;
19301;SDS011;9785;59.362;12.152;2024-01-30T07:11:35;2.43;;;2.20;;
19301;SDS011;9785;59.362;12.152;2024-01-30T07:14:03;3.23;;;2.30;;
19301;SDS011;9785;59.362;12.152;2024-01-30T07:16:33;3.40;;;2.10;;
19301;SDS011;9785;59.362;12.152;2024-01-30T07:19:02;3.83;;;2.10;;
19301;SDS011;9785;59.362;12.152;2024-01-30T07:21:31;2.80;;;1.90;;
19301;SDS011;9785;59.362;12.152;2024-01-30T07:23:59;4.53;;;2.20;;
19301;SDS011;9785;59.362;12.152;2024-01-30T07:26:28;2.60;;;2.00;;
19301;SDS011;9785;59.362;12.152;2024-01-30T07:28:57;2.53;;;2.20;;
19301;SDS011;9785;59.362;12.152;2024-01-30T07:31:25;5.90;;;2.43;;
19301;SDS011;9785;59.362;12.152;2024-01-30T07:34:00;2.87;;;2.13;;
19301;SDS011;9785;59.362;12.152;2024-01-30T07:36:29;2.17;;;1.97;;
19301;SDS011;9785;59.362;12.152;2024-01-30T07:38:58;5.40;;;2.57;;
19301;SDS011;9785;59.362;12.152;2024-01-30T07:41:27;3.60;;;2.20;;
19301;SDS011;9785;59.362;12.152;2024-01-30T07:43:55;3.73;;;2.30;;
19301;SDS011;9785;59.362;12.152;2024-01-30T07:46:25;2.87;;;2.13;;
19301;SDS011;9785;59.362;12.152;2024-01-30T07:48:53;2.63;;;2.10;;
19301;SDS011;9785;59.362;12.152;2024-01-30T07:51:24;2.97;;;2.00;;
19301;SDS011;9785;59.362;12.152;2024-01-30T07:54:00;6.27;;;2.43;;
19301;SDS011;9785;59.362;12.152;2024-01-30T07:56:29;2.67;;;2.10;;
19301;SDS011;9785;59.362;12.152;2024-01-30T07:58:58;4.57;;;2.30;;
19301;SDS011;9785;59.362;12.152;2024-01-30T08:01:26;2.90;;;2.00;;
19301;SDS011;9785;59.362;12.152;2024-01-30T08:03:55;3.67;;;2.43;;
19301;SDS011;9785;59.362;12.152;2024-01-30T08:06:25;5.43;;;2.87;;
19301;SDS011;9785;59.362;12.152;2024-01-30T08:08:54;5.67;;;2.70;;
19301;SDS011;9785;59.362;12.152;2024-01-30T08:11:23;4.23;;;2.67;;
19301;SDS011;9785;59.362;12.152;2024-01-30T08:13:53;5.57;;;2.77;;
19301;SDS011;9785;59.362;12.152;2024-01-30T08:16:21;5.73;;;2.80;;
19301;SDS011;9785;59.362;12.152;2024-01-30T08:18:50;5.87;;;2.90;;
19301;SDS011;9785;59.362;12.152;2024-01-30T08:21:22;4.10;;;2.37;;
19301;SDS011;9785;59.362;12.152;2024-01-30T08:23:52;4.97;;;2.63;;
19301;SDS011;9785;59.362;12.152;2024-01-30T08:26:20;3.70;;;2.70;;
19301;SDS011;9785;59.362;12.152;2024-01-30T08:28:49;4.53;;;2.37;;
19301;SDS011;9785;59.362;12.152;2024-01-30T08:31:20;6.43;;;2.73;;
19301;SDS011;9785;59.362;12.152;2024-01-30T08:33:49;6.83;;;2.53;;
19301;SDS011;9785;59.362;12.152;2024-01-30T08:36:18;4.50;;;2.63;;
19301;SDS011;9785;59.362;12.152;2024-01-30T08:38:46;4.47;;;2.90;;
19301;SDS011;9785;59.362;12.152;2024-01-30T08:41:16;5.63;;;2.57;;
19301;SDS011;9785;59.362;12.152;2024-01-30T08:43:45;3.17;;;2.70;;
19301;SDS011;9785;59.362;12.152;2024-01-30T08:46:17;5.37;;;2.60;;
19301;SDS011;9785;59.362;12.152;2024-01-30T08:48:46;4.63;;;2.87;;
19301;SDS011;9785;59.362;12.152;2024-01-30T08:51:15;3.97;;;2.57;;
19301;SDS011;9785;59.362;12.152;2024-01-30T08:53:44;4.83;;;2.17;;
19301;SDS011;9785;59.362;12.152;2024-01-30T08:56:12;4.73;;;2.10;;
19301;SDS011;9785;59.362;12.152;2024-01-30T08:58:44;3.03;;;1.93;;
19301;SDS011;9785;59.362;12.152;2024-01-30T09:01:12;4.60;;;2.37;;
19301;SDS011;9785;59.362;12.152;2024-01-30T09:03:42;2.77;;;2.20;;
19301;SDS011;9785;59.362;12.152;2024-01-30T09:06:13;4.33;;;2.20;;
19301;SDS011;9785;59.362;12.152;2024-01-30T09:08:42;1.80;;;1.70;;
19301;SDS011;9785;59.362;12.152;2024-01-30T09:11:11;3.93;;;2.10;;
19301;SDS011;9785;59.362;12.152;2024-01-30T09:13:40;2.40;;;1.97;;
19301;SDS011;9785;59.362;12.152;2024-01-30T09:16:11;8.77;;;2.17;;
19301;SDS011;9785;59.362;12.152;2024-01-30T09:18:40;3.30;;;2.20;;
19301;SDS011;9785;59.362;12.152;2024-01-30T09:21:09;4.87;;;2.00;;
19301;SDS011;9785;59.362;12.152;2024-01-30T09:23:38;5.37;;;2.10;;
19301;SDS011;9785;59.362;12.152;2024-01-30T09:26:06;10.53;;;2.60;;
19301;SDS011;9785;59.362;12.152;2024-01-30T09:28:35;2.83;;;2.27;;
19301;SDS011;9785;59.362;12.152;2024-01-30T09:31:04;2.80;;;2.20;;
19301;SDS011;9785;59.362;12.152;2024-01-30T09:33:39;4.87;;;2.03;;
19301;SDS011;9785;59.362;12.152;2024-01-30T09:36:08;4.77;;;2.00;;
19301;SDS011;9785;59.362;12.152;2024-01-30T09:38:37;4.43;;;2.17;;
19301;SDS011;9785;59.362;12.152;2024-01-30T09:41:06;1.80;;;1.70;;
19301;SDS011;9785;59.362;12.152;2024-01-30T09:43:38;3.57;;;2.10;;
19301;SDS011;9785;59.362;12.152;2024-01-30T09:46:08;4.43;;;2.50;;
19301;SDS011;9785;59.362;12.152;2024-01-30T09:48:42;2.53;;;2.27;;
19301;SDS011;9785;59.362;12.152;2024-01-30T09:51:10;3.73;;;2.40;;
19301;SDS011;9785;59.362;12.152;2024-01-30T09:53:39;4.23;;;2.37;;
19301;SDS011;9785;59.362;12.152;2024-01-30T09:56:08;3.60;;;2.20;;
19301;SDS011;9785;59.362;12.152;2024-01-30T09:58:37;4.80;;;2.33;;
19301;SDS011;9785;59.362;12.152;2024-01-30T10:01:06;2.97;;;2.27;;
19301;SDS011;9785;59.362;12.152;2024-01-30T10:03:35;7.13;;;2.37;;
19301;SDS011;9785;59.362;12.152;2024-01-30T10:06:06;3.33;;;2.70;;
19301;SDS011;9785;59.362;12.152;2024-01-30T10:08:34;2.83;;;2.47;;
19301;SDS011;9785;59.362;12.152;2024-01-30T10:11:03;2.40;;;2.20;;
19301;SDS011;9785;59.362;12.152;2024-01-30T10:13:33;4.73;;;2.40;;
19301;SDS011;9785;59.362;12.152;2024-01-30T10:16:01;3.50;;;2.63;;
19301;SDS011;9785;59.362;12.152;2024-01-30T10:18:32;4.23;;;2.40;;
19301;SDS011;9785;59.362;12.152;2024-01-30T10:21:01;3.23;;;2.50;;
19301;SDS011;9785;59.362;12.152;2024-01-30T10:23:31;2.70;;;2.50;;
19301;SDS011;9785;59.362;12.152;2024-01-30T10:26:02;2.63;;;2.30;;
19301;SDS011;9785;59.362;12.152;2024-01-30T10:28:31;4.43;;;2.70;;
19301;SDS011;9785;59.362;12.152;2024-01-30T10:30:59;3.53;;;2.40;;
19301;SDS011;9785;59.362;12.152;2024-01-30T10:33:32;3.00;;;2.47;;
19301;SDS011;9785;59.362;12.152;2024-01-30T10:36:01;2.47;;;2.27;;
19301;SDS011;9785;59.362;12.152;2024-01-30T10:38:32;4.63;;;2.30;;
19301;SDS011;9785;59.362;12.152;2024-01-30T10:41:01;7.50;;;2.97;;
19301;SDS011;9785;59.362;12.152;2024-01-30T10:43:31;4.70;;;2.03;;
19301;SDS011;9785;59.362;12.152;2024-01-30T10:46:08;2.43;;;2.20;;
19301;SDS011;9785;59.362;12.152;2024-01-30T10:48:41;2.17;;;2.07;;
19301;SDS011;9785;59.362;12.152;2024-01-30T10:51:12;3.27;;;2.07;;
19301;SDS011;9785;59.362;12.152;2024-01-30T10:53:43;2.33;;;2.13;;
19301;SDS011;9785;59.362;12.152;2024-01-30T10:56:12;2.47;;;2.27;;
19301;SDS011;9785;59.362;12.152;2024-01-30T10:58:42;3.47;;;2.47;;
19301;SDS011;9785;59.362;12.152;2024-01-30T11:01:10;2.10;;;1.90;;
19301;SDS011;9785;59.362;12.152;2024-01-30T11:03:39;2.57;;;2.30;;
19301;SDS011;9785;59.362;12.152;2024-01-30T11:06:10;6.87;;;2.53;;
19301;SDS011;9785;59.362;12.152;2024-01-30T11:08:40;3.80;;;2.50;;
19301;SDS011;9785;59.362;12.152;2024-01-30T11:11:10;4.97;;;2.30;;
19301;SDS011;9785;59.362;12.152;2024-01-30T11:13:43;3.97;;;2.33;;
19301;SDS011;9785;59.362;12.152;2024-01-30T11:16:11;10.07;;;2.70;;
19301;SDS011;9785;59.362;12.152;2024-01-30T11:18:40;4.20;;;2.10;;
19301;SDS011;9785;59.362;12.152;2024-01-30T11:21:09;15.00;;;2.63;;
19301;SDS011;9785;59.362;12.152;2024-01-30T11:23:41;6.87;;;2.63;;
19301;SDS011;9785;59.362;12.152;2024-01-30T11:26:12;4.77;;;2.87;;
19301;SDS011;9785;59.362;12.152;2024-01-30T11:28:40;4.27;;;3.20;;
19301;SDS011;9785;59.362;12.152;2024-01-30T11:31:09;4.43;;;3.10;;
19301;SDS011;9785;59.362;12.152;2024-01-30T11:33:38;5.83;;;3.23;;
19301;SDS011;9785;59.362;12.152;2024-01-30T11:36:07;5.73;;;3.27;;
19301;SDS011;9785;59.362;12.152;2024-01-30T11:38:36;4.27;;;3.17;;
19301;SDS011;9785;59.362;12.152;2024-01-30T11:41:07;4.37;;;3.30;;
19301;SDS011;9785;59.362;12.152;2024-01-30T11:43:38;4.47;;;3.37;;
19301;SDS011;9785;59.362;12.152;2024-01-30T11:46:07;8.37;;;4.03;;
19301;SDS011;9785;59.362;12.152;2024-01-30T11:48:36;7.93;;;4.20;;
19301;SDS011;9785;59.362;12.152;2024-01-30T11:51:05;6.20;;;3.67;;
19301;SDS011;9785;59.362;12.152;2024-01-30T11:53:34;8.07;;;3.57;;
19301;SDS011;9785;59.362;12.152;2024-01-30T11:56:02;9.13;;;4.17;;
19301;SDS011;9785;59.362;12.152;2024-01-30T11:58:35;10.37;;;4.50;;
19301;SDS011;9785;59.362;12.152;2024-01-30T12:01:07;20.57;;;4.80;;
19301;SDS011;9785;59.362;12.152;2024-01-30T12:03:35;19.63;;;4.40;;
19301;SDS011;9785;59.362;12.152;2024-01-30T12:06:04;14.53;;;4.00;;
19301;SDS011;9785;59.362;12.152;2024-01-30T12:08:33;16.40;;;4.20;;
19301;SDS011;9785;59.362;12.152;2024-01-30T12:11:02;13.63;;;4.47;;
19301;SDS011;9785;59.362;12.152;2024-01-30T12:13:31;9.73;;;4.00;;
19301;SDS011;9785;59.362;12.152;2024-01-30T12:16:00;8.07;;;3.23;;
19301;SDS011;9785;59.362;12.152;2024-01-30T12:18:30;4.80;;;2.80;;
19301;SDS011;9785;59.362;12.152;2024-01-30T12:21:00;2.80;;;2.50;;
19301;SDS011;9785;59.362;12.152;2024-01-30T12:23:28;26.93;;;4.33;;
19301;SDS011;9785;59.362;12.152;2024-01-30T12:25:57;5.20;;;2.70;;
19301;SDS011;9785;59.362;12.152;2024-01-30T12:28:26;99.50;;;6.40;;
19301;SDS011;9785;59.362;12.152;2024-01-30T12:30:55;7.40;;;3.17;;
19301;SDS011;9785;59.362;12.152;2024-01-30T12:33:26;3.77;;;2.90;;
19301;SDS011;9785;59.362;12.152;2024-01-30T12:35:56;3.33;;;2.40;;
19301;SDS011;9785;59.362;12.152;2024-01-30T12:38:29;4.87;;;2.33;;
19301;SDS011;9785;59.362;12.152;2024-01-30T12:40:58;13.07;;;1.87;;
19301;SDS011;9785;59.362;12.152;2024-01-30T12:43:27;9.73;;;2.37;;
19301;SDS011;9785;59.362;12.152;2024-01-30T12:46:04;2.20;;;2.00;;
19301;SDS011;9785;59.362;12.152;2024-01-30T12:48:32;2.30;;;2.10;;
19301;SDS011;9785;59.362;12.152;2024-01-30T12:51:03;1.90;;;1.47;;
19301;SDS011;9785;59.362;12.152;2024-01-30T12:53:31;3.20;;;1.70;;
19301;SDS011;9785;59.362;12.152;2024-01-30T12:56:00;1.50;;;1.40;;
19301;SDS011;9785;59.362;12.152;2024-01-30T12:58:28;2.60;;;1.20;;
19301;SDS011;9785;59.362;12.152;2024-01-30T13:00:57;1.67;;;1.57;;
19301;SDS011;9785;59.362;12.152;2024-01-30T13:03:26;2.93;;;1.07;;
19301;SDS011;9785;59.362;12.152;2024-01-30T13:05:55;1.13;;;1.00;;
19301;SDS011;9785;59.362;12.152;2024-01-30T13:08:25;0.80;;;0.80;;
19301;SDS011;9785;59.362;12.152;2024-01-30T13:10:54;0.90;;;0.90;;
19301;SDS011;9785;59.362;12.152;2024-01-30T13:13:22;1.00;;;1.00;;
19301;SDS011;9785;59.362;12.152;2024-01-30T13:15:51;1.00;;;1.00;;
19301;SDS011;9785;59.362;12.152;2024-01-30T13:18:19;0.70;;;0.70;;
19301;SDS011;9785;59.362;12.152;2024-01-30T13:20:48;2.00;;;0.80;;
19301;SDS011;9785;59.362;12.152;2024-01-30T13:23:17;1.03;;;0.87;;
19301;SDS011;9785;59.362;12.152;2024-01-30T13:25:46;0.93;;;0.93;;
19301;SDS011;9785;59.362;12.152;2024-01-30T13:28:15;0.70;;;0.70;;
19301;SDS011;9785;59.362;12.152;2024-01-30T13:30:44;0.77;;;0.70;;
19301;SDS011;9785;59.362;12.152;2024-01-30T13:33:13;0.80;;;0.80;;
19301;SDS011;9785;59.362;12.152;2024-01-30T13:35:41;0.70;;;0.70;;
19301;SDS011;9785;59.362;12.152;2024-01-30T13:38:10;0.70;;;0.70;;
19301;SDS011;9785;59.362;12.152;2024-01-30T13:40:40;0.90;;;0.90;;
19301;SDS011;9785;59.362;12.152;2024-01-30T13:43:10;0.87;;;0.87;;
19301;SDS011;9785;59.362;12.152;2024-01-30T13:45:39;1.23;;;1.23;;
19301;SDS011;9785;59.362;12.152;2024-01-30T13:48:08;1.13;;;1.13;;
19301;SDS011;9785;59.362;12.152;2024-01-30T13:50:37;1.00;;;1.00;;
19301;SDS011;9785;59.362;12.152;2024-01-30T13:53:06;1.20;;;1.20;;
19301;SDS011;9785;59.362;12.152;2024-01-30T13:55:35;1.20;;;1.10;;
19301;SDS011;9785;59.362;12.152;2024-01-30T13:58:03;1.30;;;1.30;;
19301;SDS011;9785;59.362;12.152;2024-01-30T14:00:33;1.00;;;1.00;;
19301;SDS011;9785;59.362;12.152;2024-01-30T14:03:02;0.90;;;0.90;;
19301;SDS011;9785;59.362;12.152;2024-01-30T14:05:31;1.10;;;1.10;;
19301;SDS011;9785;59.362;12.152;2024-01-30T14:08:00;1.10;;;1.10;;
19301;SDS011;9785;59.362;12.152;2024-01-30T14:10:28;1.10;;;1.10;;
19301;SDS011;9785;59.362;12.152;2024-01-30T14:12:57;1.03;;;1.03;;
19301;SDS011;9785;59.362;12.152;2024-01-30T14:15:26;0.90;;;0.90;;
19301;SDS011;9785;59.362;12.152;2024-01-30T14:17:56;0.83;;;0.83;;
19301;SDS011;9785;59.362;12.152;2024-01-30T14:20:25;0.87;;;0.87;;
19301;SDS011;9785;59.362;12.152;2024-01-30T14:22:54;0.70;;;0.70;;
19301;SDS011;9785;59.362;12.152;2024-01-30T14:25:23;0.80;;;0.80;;
19301;SDS011;9785;59.362;12.152;2024-01-30T14:27:52;0.80;;;0.80;;
19301;SDS011;9785;59.362;12.152;2024-01-30T14:30:21;0.70;;;0.70;;
19301;SDS011;9785;59.362;12.152;2024-01-30T14:32:50;0.70;;;0.70;;
19301;SDS011;9785;59.362;12.152;2024-01-30T14:35:20;0.70;;;0.70;;
19301;SDS011;9785;59.362;12.152;2024-01-30T14:37:49;0.70;;;0.70;;
19301;SDS011;9785;59.362;12.152;2024-01-30T14:40:17;0.93;;;0.93;;
19301;SDS011;9785;59.362;12.152;2024-01-30T14:42:46;2.50;;;1.97;;
19301;SDS011;9785;59.362;12.152;2024-01-30T14:45:15;8.47;;;6.47;;
19301;SDS011;9785;59.362;12.152;2024-01-30T14:47:44;3.10;;;2.90;;
19301;SDS011;9785;59.362;12.152;2024-01-30T14:50:12;1.10;;;1.10;;
19301;SDS011;9785;59.362;12.152;2024-01-30T14:52:44;1.57;;;1.57;;
19301;SDS011;9785;59.362;12.152;2024-01-30T14:55:13;1.10;;;1.10;;
19301;SDS011;9785;59.362;12.152;2024-01-30T14:57:42;1.50;;;1.50;;